sensor_id;sensor_type;location;lat;lon;timestamp;P1;durP1;ratioP1;P2;durP2;ratioP2
62125;SDS011;48112;53.282;6.150;2022-08-14T00:00:22;0.20;;;0.20;;
62125;SDS011;48112;53.282;6.150;2022-08-14T00:01:24;0.20;;;0.20;;
62125;SDS011;48112;53.282;6.150;2022-08-14T00:02:30;0.20;;;0.20;;
62125;SDS011;48112;53.282;6.150;2022-08-14T00:03:32;0.17;;;0.17;;
62125;SDS011;48112;53.282;6.150;2022-08-14T00:04:35;0.20;;;0.20;;
62125;SDS011;48112;53.282;6.150;2022-08-14T00:05:42;0.20;;;0.20;;
62125;SDS011;48112;53.282;6.150;2022-08-14T00:06:47;0.20;;;0.20;;
62125;SDS011;48112;53.282;6.150;2022-08-14T00:07:50;0.20;;;0.20;;
62125;SDS011;48112;53.282;6.150;2022-08-14T00:08:56;0.20;;;0.20;;
62125;SDS011;48112;53.282;6.150;2022-08-14T00:09:59;0.20;;;0.20;;
62125;SDS011;48112;53.282;6.150;2022-08-14T00:11:23;0.20;;;0.20;;
62125;SDS011;48112;53.282;6.150;2022-08-14T00:12:25;0.20;;;0.20;;
62125;SDS011;48112;53.282;6.150;2022-08-14T00:13:37;0.20;;;0.20;;
62125;SDS011;48112;53.282;6.150;2022-08-14T00:14:42;0.20;;;0.20;;
62125;SDS011;48112;53.282;6.150;2022-08-14T00:15:46;0.20;;;0.20;;
62125;SDS011;48112;53.282;6.150;2022-08-14T00:16:49;0.20;;;0.20;;
62125;SDS011;48112;53.282;6.150;2022-08-14T00:17:56;0.20;;;0.20;;
62125;SDS011;48112;53.282;6.150;2022-08-14T00:18:59;0.20;;;0.20;;
62125;SDS011;48112;53.282;6.150;2022-08-14T00:20:20;0.30;;;0.30;;
62125;SDS011;48112;53.282;6.150;2022-08-14T00:21:35;0.20;;;0.20;;
62125;SDS011;48112;53.282;6.150;2022-08-14T00:22:38;0.20;;;0.20;;
62125;SDS011;48112;53.282;6.150;2022-08-14T00:23:59;0.38;;;0.38;;
62125;SDS011;48112;53.282;6.150;2022-08-14T00:25:05;0.20;;;0.20;;
62125;SDS011;48112;53.282;6.150;2022-08-14T00:26:07;0.20;;;0.20;;
62125;SDS011;48112;53.282;6.150;2022-08-14T00:27:24;0.20;;;0.20;;
62125;SDS011;48112;53.282;6.150;2022-08-14T00:28:35;0.20;;;0.20;;
62125;SDS011;48112;53.282;6.150;2022-08-14T00:29:39;0.20;;;0.20;;
62125;SDS011;48112;53.282;6.150;2022-08-14T00:30:45;0.20;;;0.20;;
62125;SDS011;48112;53.282;6.150;2022-08-14T00:31:48;0.20;;;0.20;;
62125;SDS011;48112;53.282;6.150;2022-08-14T00:32:57;0.22;;;0.22;;
62125;SDS011;48112;53.282;6.150;2022-08-14T00:34:00;0.22;;;0.22;;
62125;SDS011;48112;53.282;6.150;2022-08-14T00:35:22;0.30;;;0.30;;
62125;SDS011;48112;53.282;6.150;2022-08-14T00:36:46;0.30;;;0.30;;
62125;SDS011;48112;53.282;6.150;2022-08-14T00:37:50;0.20;;;0.20;;
62125;SDS011;48112;53.282;6.150;2022-08-14T00:38:53;0.30;;;0.30;;
62125;SDS011;48112;53.282;6.150;2022-08-14T00:39:56;0.30;;;0.30;;
62125;SDS011;48112;53.282;6.150;2022-08-14T00:41:01;0.28;;;0.28;;
62125;SDS011;48112;53.282;6.150;2022-08-14T00:42:11;0.30;;;0.30;;
62125;SDS011;48112;53.282;6.150;2022-08-14T00:43:33;0.30;;;0.30;;
62125;SDS011;48112;53.282;6.150;2022-08-14T00:44:42;0.25;;;0.25;;
62125;SDS011;48112;53.282;6.150;2022-08-14T00:45:46;0.30;;;0.30;;
62125;SDS011;48112;53.282;6.150;2022-08-14T00:46:53;0.30;;;0.30;;
62125;SDS011;48112;53.282;6.150;2022-08-14T00:47:59;0.30;;;0.30;;
62125;SDS011;48112;53.282;6.150;2022-08-14T00:49:02;0.28;;;0.28;;
62125;SDS011;48112;53.282;6.150;2022-08-14T00:50:06;0.20;;;0.20;;
62125;SDS011;48112;53.282;6.150;2022-08-14T00:51:18;0.30;;;0.30;;
62125;SDS011;48112;53.282;6.150;2022-08-14T00:52:23;0.30;;;0.30;;
62125;SDS011;48112;53.282;6.150;2022-08-14T00:53:27;0.30;;;0.30;;
62125;SDS011;48112;53.282;6.150;2022-08-14T00:54:31;0.30;;;0.30;;
62125;SDS011;48112;53.282;6.150;2022-08-14T00:55:34;0.30;;;0.30;;
62125;SDS011;48112;53.282;6.150;2022-08-14T00:56:43;0.30;;;0.30;;
62125;SDS011;48112;53.282;6.150;2022-08-14T00:57:46;0.30;;;0.30;;
62125;SDS011;48112;53.282;6.150;2022-08-14T00:59:10;0.30;;;0.30;;
62125;SDS011;48112;53.282;6.150;2022-08-14T01:00:16;0.30;;;0.30;;
62125;SDS011;48112;53.282;6.150;2022-08-14T01:01:41;0.30;;;0.30;;
62125;SDS011;48112;53.282;6.150;2022-08-14T01:02:44;0.30;;;0.30;;
62125;SDS011;48112;53.282;6.150;2022-08-14T01:03:54;0.20;;;0.20;;
62125;SDS011;48112;53.282;6.150;2022-08-14T01:05:06;0.20;;;0.20;;
62125;SDS011;48112;53.282;6.150;2022-08-14T01:06:11;0.20;;;0.20;;
62125;SDS011;48112;53.282;6.150;2022-08-14T01:07:19;0.30;;;0.30;;
62125;SDS011;48112;53.282;6.150;2022-08-14T01:08:23;0.30;;;0.30;;
62125;SDS011;48112;53.282;6.150;2022-08-14T01:09:48;0.20;;;0.20;;
62125;SDS011;48112;53.282;6.150;2022-08-14T01:10:52;0.30;;;0.30;;
62125;SDS011;48112;53.282;6.150;2022-08-14T01:11:56;0.30;;;0.30;;
62125;SDS011;48112;53.282;6.150;2022-08-14T01:13:04;0.30;;;0.30;;
62125;SDS011;48112;53.282;6.150;2022-08-14T01:14:10;0.30;;;0.30;;
62125;SDS011;48112;53.282;6.150;2022-08-14T01:15:29;0.20;;;0.20;;
62125;SDS011;48112;53.282;6.150;2022-08-14T01:16:52;0.30;;;0.30;;
62125;SDS011;48112;53.282;6.150;2022-08-14T01:17:56;0.20;;;0.20;;
62125;SDS011;48112;53.282;6.150;2022-08-14T01:19:16;0.20;;;0.20;;
62125;SDS011;48112;53.282;6.150;2022-08-14T01:20:37;0.30;;;0.30;;
62125;SDS011;48112;53.282;6.150;2022-08-14T01:22:01;0.30;;;0.30;;
62125;SDS011;48112;53.282;6.150;2022-08-14T01:23:13;0.20;;;0.20;;
62125;SDS011;48112;53.282;6.150;2022-08-14T01:24:19;0.30;;;0.30;;
62125;SDS011;48112;53.282;6.150;2022-08-14T01:25:31;0.30;;;0.30;;
62125;SDS011;48112;53.282;6.150;2022-08-14T01:26:35;0.30;;;0.30;;
62125;SDS011;48112;53.282;6.150;2022-08-14T01:27:39;0.30;;;0.30;;
62125;SDS011;48112;53.282;6.150;2022-08-14T01:28:57;0.30;;;0.30;;
62125;SDS011;48112;53.282;6.150;2022-08-14T01:30:00;0.30;;;0.30;;
62125;SDS011;48112;53.282;6.150;2022-08-14T01:31:06;0.30;;;0.30;;
62125;SDS011;48112;53.282;6.150;2022-08-14T01:32:11;0.30;;;0.30;;
62125;SDS011;48112;53.282;6.150;2022-08-14T01:33:16;0.30;;;0.30;;
62125;SDS011;48112;53.282;6.150;2022-08-14T01:34:19;0.20;;;0.20;;
62125;SDS011;48112;53.282;6.150;2022-08-14T01:35:43;0.20;;;0.20;;
62125;SDS011;48112;53.282;6.150;2022-08-14T01:37:07;0.30;;;0.30;;
62125;SDS011;48112;53.282;6.150;2022-08-14T01:38:11;0.30;;;0.30;;
62125;SDS011;48112;53.282;6.150;2022-08-14T01:39:17;0.30;;;0.30;;
62125;SDS011;48112;53.282;6.150;2022-08-14T01:40:21;0.20;;;0.20;;
62125;SDS011;48112;53.282;6.150;2022-08-14T01:41:34;0.22;;;0.22;;
62125;SDS011;48112;53.282;6.150;2022-08-14T01:42:40;0.30;;;0.30;;
62125;SDS011;48112;53.282;6.150;2022-08-14T01:43:46;0.20;;;0.20;;
62125;SDS011;48112;53.282;6.150;2022-08-14T01:44:57;0.20;;;0.20;;
62125;SDS011;48112;53.282;6.150;2022-08-14T01:45:59;0.20;;;0.20;;
62125;SDS011;48112;53.282;6.150;2022-08-14T01:47:10;0.20;;;0.20;;
62125;SDS011;48112;53.282;6.150;2022-08-14T01:48:22;0.30;;;0.30;;
62125;SDS011;48112;53.282;6.150;2022-08-14T01:49:26;0.28;;;0.28;;
62125;SDS011;48112;53.282;6.150;2022-08-14T01:50:36;0.20;;;0.20;;
62125;SDS011;48112;53.282;6.150;2022-08-14T01:51:38;0.20;;;0.20;;
62125;SDS011;48112;53.282;6.150;2022-08-14T01:52:44;0.30;;;0.30;;
62125;SDS011;48112;53.282;6.150;2022-08-14T01:54:02;0.30;;;0.30;;
62125;SDS011;48112;53.282;6.150;2022-08-14T01:55:09;0.30;;;0.30;;
62125;SDS011;48112;53.282;6.150;2022-08-14T01:56:14;0.20;;;0.20;;
62125;SDS011;48112;53.282;6.150;2022-08-14T01:57:19;0.20;;;0.20;;
62125;SDS011;48112;53.282;6.150;2022-08-14T01:58:21;0.30;;;0.30;;
62125;SDS011;48112;53.282;6.150;2022-08-14T01:59:31;0.30;;;0.30;;
62125;SDS011;48112;53.282;6.150;2022-08-14T02:00:39;0.30;;;0.30;;
62125;SDS011;48112;53.282;6.150;2022-08-14T02:01:42;0.30;;;0.30;;
62125;SDS011;48112;53.282;6.150;2022-08-14T02:02:58;0.30;;;0.30;;
62125;SDS011;48112;53.282;6.150;2022-08-14T02:04:04;0.20;;;0.20;;
62125;SDS011;48112;53.282;6.150;2022-08-14T02:05:26;0.20;;;0.20;;
62125;SDS011;48112;53.282;6.150;2022-08-14T02:06:35;0.28;;;0.28;;
62125;SDS011;48112;53.282;6.150;2022-08-14T02:07:39;0.30;;;0.30;;
62125;SDS011;48112;53.282;6.150;2022-08-14T02:08:55;0.30;;;0.30;;
62125;SDS011;48112;53.282;6.150;2022-08-14T02:09:59;0.28;;;0.28;;
62125;SDS011;48112;53.282;6.150;2022-08-14T02:11:01;0.22;;;0.22;;
62125;SDS011;48112;53.282;6.150;2022-08-14T02:12:24;0.20;;;0.20;;
62125;SDS011;48112;53.282;6.150;2022-08-14T02:13:29;0.30;;;0.30;;
62125;SDS011;48112;53.282;6.150;2022-08-14T02:14:35;0.30;;;0.30;;
62125;SDS011;48112;53.282;6.150;2022-08-14T02:15:38;0.30;;;0.30;;
62125;SDS011;48112;53.282;6.150;2022-08-14T02:16:44;0.25;;;0.25;;
62125;SDS011;48112;53.282;6.150;2022-08-14T02:17:51;0.20;;;0.20;;
62125;SDS011;48112;53.282;6.150;2022-08-14T02:18:54;0.20;;;0.20;;
62125;SDS011;48112;53.282;6.150;2022-08-14T02:19:58;0.30;;;0.30;;
62125;SDS011;48112;53.282;6.150;2022-08-14T02:21:03;0.30;;;0.30;;
62125;SDS011;48112;53.282;6.150;2022-08-14T02:22:06;0.22;;;0.22;;
62125;SDS011;48112;53.282;6.150;2022-08-14T02:23:10;0.30;;;0.30;;
62125;SDS011;48112;53.282;6.150;2022-08-14T02:24:17;0.30;;;0.30;;
62125;SDS011;48112;53.282;6.150;2022-08-14T02:25:41;0.30;;;0.30;;
62125;SDS011;48112;53.282;6.150;2022-08-14T02:26:55;0.20;;;0.20;;
62125;SDS011;48112;53.282;6.150;2022-08-14T02:28:20;0.20;;;0.20;;
62125;SDS011;48112;53.282;6.150;2022-08-14T02:29:43;0.20;;;0.20;;
62125;SDS011;48112;53.282;6.150;2022-08-14T02:31:01;0.20;;;0.20;;
62125;SDS011;48112;53.282;6.150;2022-08-14T02:32:09;0.30;;;0.30;;
62125;SDS011;48112;53.282;6.150;2022-08-14T02:33:30;0.30;;;0.30;;
62125;SDS011;48112;53.282;6.150;2022-08-14T02:34:34;0.20;;;0.20;;
62125;SDS011;48112;53.282;6.150;2022-08-14T02:35:41;0.30;;;0.30;;
62125;SDS011;48112;53.282;6.150;2022-08-14T02:36:45;0.25;;;0.25;;
62125;SDS011;48112;53.282;6.150;2022-08-14T02:38:07;0.28;;;0.28;;
62125;SDS011;48112;53.282;6.150;2022-08-14T02:39:31;0.20;;;0.20;;
62125;SDS011;48112;53.282;6.150;2022-08-14T02:40:37;0.30;;;0.30;;
62125;SDS011;48112;53.282;6.150;2022-08-14T02:41:43;0.30;;;0.30;;
62125;SDS011;48112;53.282;6.150;2022-08-14T02:42:58;0.25;;;0.25;;
62125;SDS011;48112;53.282;6.150;2022-08-14T02:44:03;0.30;;;0.30;;
62125;SDS011;48112;53.282;6.150;2022-08-14T02:45:08;0.20;;;0.20;;
62125;SDS011;48112;53.282;6.150;2022-08-14T02:46:10;0.20;;;0.20;;
62125;SDS011;48112;53.282;6.150;2022-08-14T02:47:21;0.20;;;0.20;;
62125;SDS011;48112;53.282;6.150;2022-08-14T02:48:23;0.30;;;0.30;;
62125;SDS011;48112;53.282;6.150;2022-08-14T02:49:56;0.30;;;0.30;;
62125;SDS011;48112;53.282;6.150;2022-08-14T02:50:59;0.20;;;0.20;;
62125;SDS011;48112;53.282;6.150;2022-08-14T02:52:03;0.30;;;0.30;;
62125;SDS011;48112;53.282;6.150;2022-08-14T02:53:27;0.30;;;0.30;;
62125;SDS011;48112;53.282;6.150;2022-08-14T02:54:32;0.30;;;0.30;;
62125;SDS011;48112;53.282;6.150;2022-08-14T02:55:36;0.28;;;0.28;;
62125;SDS011;48112;53.282;6.150;2022-08-14T02:56:40;0.22;;;0.22;;
62125;SDS011;48112;53.282;6.150;2022-08-14T02:58:03;0.30;;;0.30;;
62125;SDS011;48112;53.282;6.150;2022-08-14T02:59:06;0.20;;;0.20;;
62125;SDS011;48112;53.282;6.150;2022-08-14T03:00:10;0.20;;;0.20;;
62125;SDS011;48112;53.282;6.150;2022-08-14T03:01:19;0.30;;;0.30;;
62125;SDS011;48112;53.282;6.150;2022-08-14T03:02:26;0.20;;;0.20;;
62125;SDS011;48112;53.282;6.150;2022-08-14T03:03:50;0.30;;;0.30;;
62125;SDS011;48112;53.282;6.150;2022-08-14T03:04:52;0.30;;;0.30;;
62125;SDS011;48112;53.282;6.150;2022-08-14T03:05:55;0.30;;;0.30;;
62125;SDS011;48112;53.282;6.150;2022-08-14T03:06:58;0.30;;;0.30;;
62125;SDS011;48112;53.282;6.150;2022-08-14T03:08:09;0.30;;;0.30;;
62125;SDS011;48112;53.282;6.150;2022-08-14T03:09:19;0.30;;;0.30;;
62125;SDS011;48112;53.282;6.150;2022-08-14T03:10:24;0.32;;;0.32;;
62125;SDS011;48112;53.282;6.150;2022-08-14T03:11:34;0.30;;;0.30;;
62125;SDS011;48112;53.282;6.150;2022-08-14T03:12:37;0.30;;;0.30;;
62125;SDS011;48112;53.282;6.150;2022-08-14T03:13:40;0.20;;;0.20;;
62125;SDS011;48112;53.282;6.150;2022-08-14T03:14:44;0.28;;;0.28;;
62125;SDS011;48112;53.282;6.150;2022-08-14T03:15:49;0.30;;;0.30;;
62125;SDS011;48112;53.282;6.150;2022-08-14T03:17:03;0.28;;;0.28;;
62125;SDS011;48112;53.282;6.150;2022-08-14T03:18:36;0.20;;;0.20;;
62125;SDS011;48112;53.282;6.150;2022-08-14T03:19:42;0.20;;;0.20;;
62125;SDS011;48112;53.282;6.150;2022-08-14T03:20:45;0.30;;;0.30;;
62125;SDS011;48112;53.282;6.150;2022-08-14T03:21:47;0.22;;;0.22;;
62125;SDS011;48112;53.282;6.150;2022-08-14T03:22:53;0.25;;;0.25;;
62125;SDS011;48112;53.282;6.150;2022-08-14T03:23:56;0.25;;;0.25;;
62125;SDS011;48112;53.282;6.150;2022-08-14T03:25:22;0.20;;;0.20;;
62125;SDS011;48112;53.282;6.150;2022-08-14T03:26:25;0.20;;;0.20;;
62125;SDS011;48112;53.282;6.150;2022-08-14T03:27:31;0.30;;;0.30;;
62125;SDS011;48112;53.282;6.150;2022-08-14T03:28:49;0.40;;;0.40;;
62125;SDS011;48112;53.282;6.150;2022-08-14T03:29:53;0.20;;;0.20;;
62125;SDS011;48112;53.282;6.150;2022-08-14T03:30:55;0.30;;;0.30;;
62125;SDS011;48112;53.282;6.150;2022-08-14T03:32:00;0.30;;;0.30;;
62125;SDS011;48112;53.282;6.150;2022-08-14T03:33:04;0.30;;;0.30;;
62125;SDS011;48112;53.282;6.150;2022-08-14T03:34:08;0.30;;;0.30;;
62125;SDS011;48112;53.282;6.150;2022-08-14T03:35:31;0.30;;;0.30;;
62125;SDS011;48112;53.282;6.150;2022-08-14T03:36:55;0.20;;;0.20;;
62125;SDS011;48112;53.282;6.150;2022-08-14T03:38:18;0.30;;;0.30;;
62125;SDS011;48112;53.282;6.150;2022-08-14T03:39:40;0.28;;;0.28;;
62125;SDS011;48112;53.282;6.150;2022-08-14T03:40:45;0.30;;;0.30;;
62125;SDS011;48112;53.282;6.150;2022-08-14T03:41:49;0.30;;;0.30;;
62125;SDS011;48112;53.282;6.150;2022-08-14T03:42:54;0.22;;;0.22;;
62125;SDS011;48112;53.282;6.150;2022-08-14T03:43:56;0.30;;;0.30;;
62125;SDS011;48112;53.282;6.150;2022-08-14T03:45:21;0.40;;;0.40;;
62125;SDS011;48112;53.282;6.150;2022-08-14T03:46:36;0.30;;;0.30;;
62125;SDS011;48112;53.282;6.150;2022-08-14T03:47:56;0.20;;;0.20;;
62125;SDS011;48112;53.282;6.150;2022-08-14T03:49:02;0.30;;;0.30;;
62125;SDS011;48112;53.282;6.150;2022-08-14T03:50:06;0.30;;;0.30;;
62125;SDS011;48112;53.282;6.150;2022-08-14T03:51:12;0.30;;;0.30;;
62125;SDS011;48112;53.282;6.150;2022-08-14T03:52:17;0.20;;;0.20;;
62125;SDS011;48112;53.282;6.150;2022-08-14T03:53:39;0.20;;;0.20;;
62125;SDS011;48112;53.282;6.150;2022-08-14T03:54:44;0.20;;;0.20;;
62125;SDS011;48112;53.282;6.150;2022-08-14T03:55:53;0.22;;;0.22;;
62125;SDS011;48112;53.282;6.150;2022-08-14T03:57:00;0.20;;;0.20;;
62125;SDS011;48112;53.282;6.150;2022-08-14T03:58:04;0.30;;;0.30;;
62125;SDS011;48112;53.282;6.150;2022-08-14T03:59:07;0.20;;;0.20;;
62125;SDS011;48112;53.282;6.150;2022-08-14T04:00:18;0.30;;;0.30;;
62125;SDS011;48112;53.282;6.150;2022-08-14T04:01:41;0.30;;;0.30;;
62125;SDS011;48112;53.282;6.150;2022-08-14T04:02:58;0.30;;;0.30;;
62125;SDS011;48112;53.282;6.150;2022-08-14T04:04:01;0.30;;;0.30;;
62125;SDS011;48112;53.282;6.150;2022-08-14T04:05:08;0.32;;;0.32;;
62125;SDS011;48112;53.282;6.150;2022-08-14T04:06:17;0.30;;;0.30;;
62125;SDS011;48112;53.282;6.150;2022-08-14T04:07:21;0.40;;;0.40;;
62125;SDS011;48112;53.282;6.150;2022-08-14T04:08:25;0.30;;;0.30;;
62125;SDS011;48112;53.282;6.150;2022-08-14T04:09:32;0.30;;;0.30;;
62125;SDS011;48112;53.282;6.150;2022-08-14T04:10:35;0.30;;;0.30;;
62125;SDS011;48112;53.282;6.150;2022-08-14T04:11:39;0.30;;;0.30;;
62125;SDS011;48112;53.282;6.150;2022-08-14T04:12:44;0.40;;;0.40;;
62125;SDS011;48112;53.282;6.150;2022-08-14T04:13:52;0.40;;;0.40;;
62125;SDS011;48112;53.282;6.150;2022-08-14T04:14:55;0.30;;;0.30;;
62125;SDS011;48112;53.282;6.150;2022-08-14T04:15:58;0.30;;;0.30;;
62125;SDS011;48112;53.282;6.150;2022-08-14T04:17:05;0.30;;;0.30;;
62125;SDS011;48112;53.282;6.150;2022-08-14T04:18:11;0.30;;;0.30;;
62125;SDS011;48112;53.282;6.150;2022-08-14T04:19:20;0.30;;;0.30;;
62125;SDS011;48112;53.282;6.150;2022-08-14T04:20:28;0.30;;;0.30;;
62125;SDS011;48112;53.282;6.150;2022-08-14T04:21:52;0.30;;;0.30;;
62125;SDS011;48112;53.282;6.150;2022-08-14T04:23:04;0.30;;;0.30;;
62125;SDS011;48112;53.282;6.150;2022-08-14T04:24:23;0.30;;;0.30;;
62125;SDS011;48112;53.282;6.150;2022-08-14T04:25:26;0.40;;;0.40;;
62125;SDS011;48112;53.282;6.150;2022-08-14T04:26:31;0.40;;;0.40;;
62125;SDS011;48112;53.282;6.150;2022-08-14T04:27:45;0.40;;;0.40;;
62125;SDS011;48112;53.282;6.150;2022-08-14T04:29:03;0.40;;;0.40;;
62125;SDS011;48112;53.282;6.150;2022-08-14T04:30:16;0.40;;;0.40;;
62125;SDS011;48112;53.282;6.150;2022-08-14T04:31:33;0.30;;;0.30;;
62125;SDS011;48112;53.282;6.150;2022-08-14T04:32:58;0.40;;;0.40;;
62125;SDS011;48112;53.282;6.150;2022-08-14T04:34:16;0.40;;;0.40;;
62125;SDS011;48112;53.282;6.150;2022-08-14T04:35:28;0.40;;;0.40;;
62125;SDS011;48112;53.282;6.150;2022-08-14T04:36:50;0.35;;;0.35;;
62125;SDS011;48112;53.282;6.150;2022-08-14T04:38:11;0.30;;;0.30;;
62125;SDS011;48112;53.282;6.150;2022-08-14T04:39:38;0.40;;;0.40;;
62125;SDS011;48112;53.282;6.150;2022-08-14T04:40:59;0.40;;;0.40;;
62125;SDS011;48112;53.282;6.150;2022-08-14T04:42:20;0.40;;;0.40;;
62125;SDS011;48112;53.282;6.150;2022-08-14T04:43:53;0.30;;;0.30;;
62125;SDS011;48112;53.282;6.150;2022-08-14T04:44:56;0.40;;;0.40;;
62125;SDS011;48112;53.282;6.150;2022-08-14T04:46:01;0.40;;;0.40;;
62125;SDS011;48112;53.282;6.150;2022-08-14T04:47:07;0.40;;;0.40;;
62125;SDS011;48112;53.282;6.150;2022-08-14T04:48:31;0.40;;;0.40;;
62125;SDS011;48112;53.282;6.150;2022-08-14T04:49:43;0.40;;;0.40;;
62125;SDS011;48112;53.282;6.150;2022-08-14T04:50:58;0.40;;;0.40;;
62125;SDS011;48112;53.282;6.150;2022-08-14T04:52:01;0.40;;;0.40;;
62125;SDS011;48112;53.282;6.150;2022-08-14T04:53:24;0.30;;;0.30;;
62125;SDS011;48112;53.282;6.150;2022-08-14T04:54:36;0.35;;;0.35;;
62125;SDS011;48112;53.282;6.150;2022-08-14T04:55:39;0.40;;;0.40;;
62125;SDS011;48112;53.282;6.150;2022-08-14T04:56:43;0.40;;;0.40;;
62125;SDS011;48112;53.282;6.150;2022-08-14T04:57:46;0.40;;;0.40;;
62125;SDS011;48112;53.282;6.150;2022-08-14T04:58:50;0.40;;;0.40;;
62125;SDS011;48112;53.282;6.150;2022-08-14T04:59:57;0.47;;;0.47;;
62125;SDS011;48112;53.282;6.150;2022-08-14T05:01:00;0.40;;;0.40;;
62125;SDS011;48112;53.282;6.150;2022-08-14T05:02:19;0.50;;;0.50;;
62125;SDS011;48112;53.282;6.150;2022-08-14T05:03:26;0.50;;;0.50;;
62125;SDS011;48112;53.282;6.150;2022-08-14T05:04:31;0.40;;;0.40;;
62125;SDS011;48112;53.282;6.150;2022-08-14T05:05:33;0.40;;;0.40;;
62125;SDS011;48112;53.282;6.150;2022-08-14T05:06:36;0.40;;;0.40;;
62125;SDS011;48112;53.282;6.150;2022-08-14T05:07:40;0.40;;;0.40;;
62125;SDS011;48112;53.282;6.150;2022-08-14T05:09:01;0.40;;;0.40;;
62125;SDS011;48112;53.282;6.150;2022-08-14T05:10:05;0.40;;;0.40;;
62125;SDS011;48112;53.282;6.150;2022-08-14T05:11:13;0.40;;;0.40;;
62125;SDS011;48112;53.282;6.150;2022-08-14T05:12:15;0.50;;;0.50;;
62125;SDS011;48112;53.282;6.150;2022-08-14T05:13:38;0.40;;;0.40;;
62125;SDS011;48112;53.282;6.150;2022-08-14T05:15:02;0.40;;;0.40;;
62125;SDS011;48112;53.282;6.150;2022-08-14T05:16:05;0.40;;;0.40;;
62125;SDS011;48112;53.282;6.150;2022-08-14T05:17:09;0.40;;;0.40;;
62125;SDS011;48112;53.282;6.150;2022-08-14T05:18:14;0.40;;;0.40;;
62125;SDS011;48112;53.282;6.150;2022-08-14T05:19:37;0.40;;;0.40;;
62125;SDS011;48112;53.282;6.150;2022-08-14T05:21:00;0.40;;;0.40;;
62125;SDS011;48112;53.282;6.150;2022-08-14T05:22:25;0.40;;;0.40;;
62125;SDS011;48112;53.282;6.150;2022-08-14T05:23:28;0.40;;;0.40;;
62125;SDS011;48112;53.282;6.150;2022-08-14T05:24:37;0.47;;;0.47;;
62125;SDS011;48112;53.282;6.150;2022-08-14T05:25:39;0.40;;;0.40;;
62125;SDS011;48112;53.282;6.150;2022-08-14T05:26:43;0.40;;;0.40;;
62125;SDS011;48112;53.282;6.150;2022-08-14T05:27:48;0.40;;;0.40;;
62125;SDS011;48112;53.282;6.150;2022-08-14T05:28:55;0.30;;;0.30;;
62125;SDS011;48112;53.282;6.150;2022-08-14T05:29:57;0.40;;;0.40;;
62125;SDS011;48112;53.282;6.150;2022-08-14T05:31:05;0.40;;;0.40;;
62125;SDS011;48112;53.282;6.150;2022-08-14T05:32:08;0.40;;;0.40;;
62125;SDS011;48112;53.282;6.150;2022-08-14T05:33:11;0.40;;;0.40;;
62125;SDS011;48112;53.282;6.150;2022-08-14T05:34:13;0.35;;;0.35;;
62125;SDS011;48112;53.282;6.150;2022-08-14T05:35:16;0.30;;;0.30;;
62125;SDS011;48112;53.282;6.150;2022-08-14T05:36:22;0.30;;;0.30;;
62125;SDS011;48112;53.282;6.150;2022-08-14T05:37:25;0.40;;;0.40;;
62125;SDS011;48112;53.282;6.150;2022-08-14T05:38:30;0.40;;;0.40;;
62125;SDS011;48112;53.282;6.150;2022-08-14T05:39:35;0.40;;;0.40;;
62125;SDS011;48112;53.282;6.150;2022-08-14T05:40:41;0.40;;;0.40;;
62125;SDS011;48112;53.282;6.150;2022-08-14T05:41:44;0.40;;;0.40;;
62125;SDS011;48112;53.282;6.150;2022-08-14T05:43:57;0.40;;;0.40;;
62125;SDS011;48112;53.282;6.150;2022-08-14T05:45:00;0.50;;;0.50;;
62125;SDS011;48112;53.282;6.150;2022-08-14T05:46:06;0.40;;;0.40;;
62125;SDS011;48112;53.282;6.150;2022-08-14T05:47:15;0.40;;;0.40;;
62125;SDS011;48112;53.282;6.150;2022-08-14T05:48:18;0.35;;;0.35;;
62125;SDS011;48112;53.282;6.150;2022-08-14T05:49:34;0.40;;;0.40;;
62125;SDS011;48112;53.282;6.150;2022-08-14T05:50:38;0.40;;;0.40;;
62125;SDS011;48112;53.282;6.150;2022-08-14T05:51:42;0.38;;;0.38;;
62125;SDS011;48112;53.282;6.150;2022-08-14T05:52:47;0.40;;;0.40;;
62125;SDS011;48112;53.282;6.150;2022-08-14T05:53:52;0.40;;;0.40;;
62125;SDS011;48112;53.282;6.150;2022-08-14T05:55:13;0.40;;;0.40;;
62125;SDS011;48112;53.282;6.150;2022-08-14T05:56:23;0.32;;;0.32;;
62125;SDS011;48112;53.282;6.150;2022-08-14T05:57:29;0.40;;;0.40;;
62125;SDS011;48112;53.282;6.150;2022-08-14T05:58:32;0.30;;;0.30;;
62125;SDS011;48112;53.282;6.150;2022-08-14T05:59:41;0.30;;;0.30;;
62125;SDS011;48112;53.282;6.150;2022-08-14T06:00:44;0.40;;;0.40;;
62125;SDS011;48112;53.282;6.150;2022-08-14T06:01:48;0.40;;;0.40;;
62125;SDS011;48112;53.282;6.150;2022-08-14T06:02:51;0.40;;;0.40;;
62125;SDS011;48112;53.282;6.150;2022-08-14T06:03:53;0.40;;;0.40;;
62125;SDS011;48112;53.282;6.150;2022-08-14T06:04:58;0.30;;;0.30;;
62125;SDS011;48112;53.282;6.150;2022-08-14T06:06:03;0.30;;;0.30;;
62125;SDS011;48112;53.282;6.150;2022-08-14T06:07:06;0.30;;;0.30;;
62125;SDS011;48112;53.282;6.150;2022-08-14T06:08:13;0.30;;;0.30;;
62125;SDS011;48112;53.282;6.150;2022-08-14T06:09:37;0.30;;;0.30;;
62125;SDS011;48112;53.282;6.150;2022-08-14T06:10:41;0.30;;;0.30;;
62125;SDS011;48112;53.282;6.150;2022-08-14T06:11:44;0.38;;;0.38;;
62125;SDS011;48112;53.282;6.150;2022-08-14T06:12:50;0.40;;;0.40;;
62125;SDS011;48112;53.282;6.150;2022-08-14T06:13:57;0.40;;;0.40;;
62125;SDS011;48112;53.282;6.150;2022-08-14T06:15:00;0.40;;;0.40;;
62125;SDS011;48112;53.282;6.150;2022-08-14T06:16:08;0.30;;;0.30;;
62125;SDS011;48112;53.282;6.150;2022-08-14T06:17:12;0.40;;;0.40;;
62125;SDS011;48112;53.282;6.150;2022-08-14T06:18:26;0.40;;;0.40;;
62125;SDS011;48112;53.282;6.150;2022-08-14T06:19:32;0.30;;;0.30;;
62125;SDS011;48112;53.282;6.150;2022-08-14T06:20:35;0.38;;;0.38;;
62125;SDS011;48112;53.282;6.150;2022-08-14T06:21:40;0.30;;;0.30;;
62125;SDS011;48112;53.282;6.150;2022-08-14T06:22:43;0.35;;;0.35;;
62125;SDS011;48112;53.282;6.150;2022-08-14T06:23:49;0.30;;;0.30;;
62125;SDS011;48112;53.282;6.150;2022-08-14T06:24:52;0.40;;;0.40;;
62125;SDS011;48112;53.282;6.150;2022-08-14T06:25:54;0.32;;;0.32;;
62125;SDS011;48112;53.282;6.150;2022-08-14T06:26:58;0.30;;;0.30;;
62125;SDS011;48112;53.282;6.150;2022-08-14T06:28:14;0.35;;;0.35;;
62125;SDS011;48112;53.282;6.150;2022-08-14T06:29:28;0.40;;;0.40;;
62125;SDS011;48112;53.282;6.150;2022-08-14T06:30:35;0.40;;;0.40;;
62125;SDS011;48112;53.282;6.150;2022-08-14T06:31:47;0.30;;;0.30;;
62125;SDS011;48112;53.282;6.150;2022-08-14T06:33:02;0.30;;;0.30;;
62125;SDS011;48112;53.282;6.150;2022-08-14T06:34:07;0.40;;;0.40;;
62125;SDS011;48112;53.282;6.150;2022-08-14T06:35:30;0.35;;;0.35;;
62125;SDS011;48112;53.282;6.150;2022-08-14T06:36:33;0.40;;;0.40;;
62125;SDS011;48112;53.282;6.150;2022-08-14T06:37:39;0.40;;;0.40;;
62125;SDS011;48112;53.282;6.150;2022-08-14T06:38:43;0.32;;;0.32;;
62125;SDS011;48112;53.282;6.150;2022-08-14T06:39:50;0.30;;;0.30;;
62125;SDS011;48112;53.282;6.150;2022-08-14T06:40:54;0.30;;;0.30;;
62125;SDS011;48112;53.282;6.150;2022-08-14T06:41:58;0.30;;;0.30;;
62125;SDS011;48112;53.282;6.150;2022-08-14T06:43:01;0.35;;;0.35;;
62125;SDS011;48112;53.282;6.150;2022-08-14T06:44:07;0.35;;;0.35;;
62125;SDS011;48112;53.282;6.150;2022-08-14T06:45:10;0.30;;;0.30;;
62125;SDS011;48112;53.282;6.150;2022-08-14T06:46:15;0.30;;;0.30;;
62125;SDS011;48112;53.282;6.150;2022-08-14T06:47:38;0.40;;;0.40;;
62125;SDS011;48112;53.282;6.150;2022-08-14T06:48:46;0.40;;;0.40;;
62125;SDS011;48112;53.282;6.150;2022-08-14T06:49:50;0.30;;;0.30;;
62125;SDS011;48112;53.282;6.150;2022-08-14T06:50:58;0.40;;;0.40;;
62125;SDS011;48112;53.282;6.150;2022-08-14T06:52:02;0.35;;;0.35;;
62125;SDS011;48112;53.282;6.150;2022-08-14T06:53:05;0.30;;;0.30;;
62125;SDS011;48112;53.282;6.150;2022-08-14T06:54:08;0.40;;;0.40;;
62125;SDS011;48112;53.282;6.150;2022-08-14T06:55:11;0.30;;;0.30;;
62125;SDS011;48112;53.282;6.150;2022-08-14T06:56:15;0.30;;;0.30;;